Time;durP1;ratioP1;P1;durP2;ratioP2;P2;SDS_P1;SDS_P2;PMS_P1;PMS_P2;Temp;Humidity;BMP_temperature;BMP_pressure;BME280_temperature;BME280_humidity;BME280_pressure;Samples;Min_cycle;Max_cycle;Signal;HPM_P1;HPM_P2
2022/09/24 00:00:52;;;;;;;40.93;34.93;;;13.00;99.90;;;;;;4954441;28;20054;-79
2022/09/24 00:03:23;;;;;;;44.53;36.70;;;13.20;99.90;;;;;;4955813;28;20039;-80
2022/09/24 00:05:50;;;;;;;46.70;36.72;;;12.90;99.90;;;;;;4955804;28;20051;-77
2022/09/24 00:08:16;;;;;;;42.13;35.72;;;13.10;99.90;;;;;;4954636;29;20051;-80
2022/09/24 00:10:43;;;;;;;46.35;36.80;;;13.10;99.90;;;;;;4955480;28;20574;-80
2022/09/24 00:13:11;;;;;;;46.75;36.65;;;13.00;99.90;;;;;;4954763;29;20043;-75
2022/09/24 00:15:39;;;;;;;47.30;38.45;;;13.00;99.90;;;;;;4956142;28;20086;-78
2022/09/24 00:18:04;;;;;;;43.40;36.47;;;13.00;99.90;;;;;;4956218;28;20458;-76
2022/09/24 00:20:31;;;;;;;43.07;35.80;;;13.00;99.90;;;;;;4955634;28;20087;-76
2022/09/24 00:22:58;;;;;;;45.53;35.63;;;13.00;99.90;;;;;;4955630;28;20162;-78
2022/09/24 00:28:08;;;;;;;45.30;35.72;;;13.10;99.90;;;;;;4955569;29;20480;-75
2022/09/24 00:30:36;;;;;;;49.13;38.60;;;13.30;99.90;;;;;;4955588;28;20047;-77
2022/09/24 00:33:01;;;;;;;46.45;38.55;;;13.10;99.90;;;;;;4955512;28;20134;-79
2022/09/24 00:35:27;;;;;;;50.87;39.33;;;13.10;99.90;;;;;;4955224;28;20125;-75
2022/09/24 00:37:53;;;;;;;47.78;39.38;;;13.00;99.90;;;;;;4955356;28;20051;-78
2022/09/24 00:40:19;;;;;;;47.90;39.08;;;13.10;99.90;;;;;;4955106;29;20070;-74
2022/09/24 00:42:45;;;;;;;45.97;39.30;;;13.10;99.90;;;;;;4955940;28;20137;-78
2022/09/24 00:45:10;;;;;;;49.67;40.53;;;13.00;99.90;;;;;;4955835;28;20055;-77
2022/09/24 00:47:41;;;;;;;53.45;41.45;;;13.10;99.90;;;;;;4955465;29;20039;-78
2022/09/24 00:50:14;;;;;;;45.25;37.10;;;13.10;99.90;;;;;;4955719;28;20062;-78
2022/09/24 00:52:46;;;;;;;53.47;41.03;;;13.10;99.90;;;;;;4954267;29;20130;-76
2022/09/24 00:55:14;;;;;;;45.45;37.17;;;13.10;99.90;;;;;;4955257;29;20134;-80
2022/09/24 00:57:42;;;;;;;50.20;38.58;;;13.10;99.90;;;;;;4955014;28;20503;-79
2022/09/24 01:00:08;;;;;;;48.92;38.97;;;13.10;99.90;;;;;;4957746;28;20054;-77
2022/09/24 01:02:38;;;;;;;50.33;40.58;;;13.10;99.90;;;;;;4958895;28;20050;-77
2022/09/24 01:05:03;;;;;;;56.47;41.58;;;13.10;99.90;;;;;;4959218;28;20054;-77
2022/09/24 01:07:29;;;;;;;50.10;42.67;;;13.10;99.90;;;;;;4958821;28;20047;-78
2022/09/24 01:09:55;;;;;;;57.55;42.13;;;13.00;99.90;;;;;;4958966;28;20066;-79
2022/09/24 01:12:49;;;;;;;51.55;41.80;;;13.00;99.90;;;;;;4958257;29;20491;-79
2022/09/24 01:15:31;;;;;;;54.38;42.28;;;13.10;99.90;;;;;;4958322;28;20455;-79
2022/09/24 01:18:20;;;;;;;57.38;41.42;;;13.10;99.90;;;;;;4958753;28;20086;-79
2022/09/24 01:21:08;;;;;;;55.47;41.55;;;13.10;99.90;;;;;;4957863;29;20113;-79
2022/09/24 01:23:56;;;;;;;51.63;39.50;;;13.10;99.90;;;;;;4958716;28;20044;-76
2022/09/24 01:26:46;;;;;;;50.00;38.00;;;13.10;99.90;;;;;;4958240;29;20511;-81
2022/09/24 01:29:42;;;;;;;55.08;36.95;;;13.10;99.90;;;;;;4957948;29;20451;-78
2022/09/24 01:32:17;;;;;;;48.03;35.42;;;13.00;99.90;;;;;;4958655;28;20500;-77
2022/09/24 01:34:51;;;;;;;52.38;38.20;;;13.10;99.90;;;;;;4958526;28;20377;-77
2022/09/24 01:37:21;;;;;;;49.95;39.95;;;13.00;99.90;;;;;;4957361;29;20058;-77
2022/09/24 01:39:49;;;;;;;52.58;41.78;;;13.00;99.90;;;;;;4958289;28;20484;-78
2022/09/24 01:42:17;;;;;;;51.22;39.35;;;13.20;99.90;;;;;;4958824;29;20055;-79
2022/09/24 01:44:43;;;;;;;54.72;41.70;;;13.00;99.90;;;;;;4958333;28;20047;-78
2022/09/24 01:47:13;;;;;;;51.55;40.65;;;13.00;99.90;;;;;;4958305;28;20431;-77
2022/09/24 01:49:38;;;;;;;53.45;40.67;;;13.00;99.90;;;;;;4958483;28;20047;-76
2022/09/24 01:52:09;;;;;;;53.80;40.63;;;13.00;99.90;;;;;;4958648;28;20487;-78
2022/09/24 01:54:40;;;;;;;52.88;40.72;;;13.00;99.90;;;;;;4958169;28;20074;-76
2022/09/24 01:57:38;;;;;;;48.25;39.53;;;13.20;99.90;;;;;;4958406;28;20051;-78
2022/09/24 02:00:13;;;;;;;49.95;40.17;;;13.00;99.90;;;;;;4957869;29;20043;-79
2022/09/24 02:02:57;;;;;;;54.08;41.50;;;13.00;99.90;;;;;;4958395;28;20097;-77
2022/09/24 02:05:42;;;;;;;53.13;40.72;;;13.00;99.90;;;;;;4958279;28;20043;-75
2022/09/24 02:08:13;;;;;;;48.42;38.22;;;13.00;99.90;;;;;;4957845;29;20050;-76
2022/09/24 02:10:54;;;;;;;54.88;39.17;;;12.90;99.90;;;;;;4957067;28;20043;-79
2022/09/24 02:13:23;;;;;;;54.58;35.95;;;12.90;99.90;;;;;;4958568;29;20055;-78
2022/09/24 02:15:52;;;;;;;62.75;39.20;;;13.00;99.90;;;;;;4957843;28;20130;-77
2022/09/24 02:18:22;;;;;;;58.70;42.65;;;12.90;99.90;;;;;;4957758;28;20377;-77
2022/09/24 02:20:49;;;;;;;56.47;42.30;;;12.90;99.90;;;;;;4957471;28;20502;-78
2022/09/24 02:23:16;;;;;;;52.97;39.92;;;12.90;99.90;;;;;;4957616;29;20054;-78
2022/09/24 02:25:49;;;;;;;51.20;37.78;;;12.90;99.90;;;;;;4957572;28;20090;-77
2022/09/24 02:28:17;;;;;;;52.22;40.78;;;13.20;99.90;;;;;;4957424;28;20102;-79
2022/09/24 02:30:49;;;;;;;49.22;37.78;;;13.00;99.90;;;;;;4957506;28;20047;-77
2022/09/24 02:36:00;;;;;;;50.97;39.10;;;12.80;99.90;;;;;;4957634;29;20050;-78
2022/09/24 02:38:26;;;;;;;46.87;36.50;;;12.90;99.90;;;;;;4957334;28;20550;-76
2022/09/24 02:40:54;;;;;;;55.05;40.95;;;12.90;99.90;;;;;;4956246;28;20051;-80
2022/09/24 02:43:19;;;;;;;55.35;42.38;;;12.90;99.90;;;;;;4956279;28;20129;-78
2022/09/24 02:45:45;;;;;;;56.17;41.43;;;12.90;99.90;;;;;;4956240;29;20440;-79
2022/09/24 02:48:11;;;;;;;54.47;40.22;;;12.80;99.90;;;;;;4955920;28;20495;-76
2022/09/24 02:50:36;;;;;;;56.00;42.80;;;12.90;99.90;;;;;;4956579;28;20047;-80
2022/09/24 02:53:02;;;;;;;62.95;43.65;;;12.90;99.90;;;;;;4956163;28;20126;-80
2022/09/24 02:55:27;;;;;;;54.95;39.17;;;12.90;99.90;;;;;;4956167;28;20047;-75
2022/09/24 02:57:53;;;;;;;51.15;41.20;;;12.80;99.90;;;;;;4956090;28;20051;-79
2022/09/24 03:00:19;;;;;;;60.20;43.67;;;12.90;99.90;;;;;;4956071;28;20066;-77
2022/09/24 03:02:46;;;;;;;56.10;41.75;;;12.80;99.90;;;;;;4955870;28;20399;-77
2022/09/24 03:05:17;;;;;;;56.42;38.75;;;12.80;99.90;;;;;;4955897;28;20484;-76
2022/09/24 03:07:43;;;;;;;56.28;41.40;;;12.80;99.90;;;;;;4956314;28;20098;-78
2022/09/24 03:10:09;;;;;;;62.90;45.65;;;12.80;99.90;;;;;;4956156;28;20065;-77
2022/09/24 03:12:34;;;;;;;61.03;44.97;;;12.90;99.90;;;;;;4956045;28;20133;-80
2022/09/24 03:15:00;;;;;;;59.07;44.30;;;12.90;99.90;;;;;;4955874;29;20188;-81
2022/09/24 03:17:27;;;;;;;61.83;44.92;;;12.80;99.90;;;;;;4955709;28;20381;-79
2022/09/24 03:19:52;;;;;;;64.13;46.65;;;12.80;99.90;;;;;;4956078;28;20043;-79
2022/09/24 03:22:18;;;;;;;67.85;47.83;;;12.80;99.90;;;;;;4955261;28;20047;-80
2022/09/24 03:24:44;;;;;;;62.58;44.53;;;12.80;99.90;;;;;;4955665;28;20438;-76
2022/09/24 03:27:10;;;;;;;68.30;47.33;;;12.80;99.90;;;;;;4955622;28;20047;-76
2022/09/24 03:32:20;;;;;;;64.13;43.70;;;12.80;99.90;;;;;;4956170;29;20051;-80
2022/09/24 03:34:46;;;;;;;64.20;44.87;;;12.80;99.90;;;;;;4955589;28;20506;-81
2022/09/24 03:37:12;;;;;;;63.47;45.53;;;12.80;99.90;;;;;;4955775;28;20530;-80
2022/09/24 03:39:37;;;;;;;59.92;43.60;;;12.80;99.90;;;;;;4920014;28;1045273;-75
2022/09/24 03:42:03;;;;;;;65.82;47.78;;;12.80;99.90;;;;;;4956225;29;20059;-78
2022/09/24 03:44:29;;;;;;;63.28;45.42;;;12.80;99.90;;;;;;4956157;28;20051;-78
2022/09/24 03:46:55;;;;;;;62.92;47.88;;;12.80;99.90;;;;;;4956198;28;20059;-76
2022/09/24 03:49:22;;;;;;;62.10;41.53;;;12.80;99.90;;;;;;4956396;28;20402;-77
2022/09/24 03:51:49;;;;;;;63.53;45.50;;;12.80;99.90;;;;;;4955797;28;20075;-79
2022/09/24 03:54:15;;;;;;;57.78;44.33;;;12.90;99.90;;;;;;4955997;28;20090;-80
2022/09/24 03:56:41;;;;;;;66.68;48.65;;;12.80;99.90;;;;;;4956015;28;20090;-78
2022/09/24 03:59:09;;;;;;;69.32;46.83;;;12.90;99.90;;;;;;4955890;28;20039;-77
2022/09/24 04:01:36;;;;;;;66.70;45.17;;;12.80;99.90;;;;;;4955787;29;20042;-79
2022/09/24 04:04:03;;;;;;;55.08;38.63;;;12.90;99.90;;;;;;4955539;28;20134;-79
2022/09/24 04:06:28;;;;;;;;;;;13.00;99.90;;;;;;4956251;29;20058;-78
2022/09/24 04:08:54;;;;;;;60.90;45.00;;;12.90;99.90;;;;;;4955792;28;19922;-80
2022/09/24 04:11:20;;;;;;;58.17;44.10;;;13.30;99.90;;;;;;4955836;28;20049;-78
2022/09/24 04:13:46;;;;;;;58.00;45.07;;;12.90;99.90;;;;;;4955651;29;20047;-79
2022/09/24 04:16:11;;;;;;;62.13;45.15;;;12.90;99.90;;;;;;4955711;29;20455;-78
2022/09/24 04:18:38;;;;;;;55.37;43.67;;;12.90;99.90;;;;;;4956037;28;20054;-80
2022/09/24 04:21:04;;;;;;;60.00;42.83;;;12.90;99.90;;;;;;4955545;28;20531;-77
2022/09/24 04:23:30;;;;;;;59.63;44.57;;;12.90;99.90;;;;;;4955631;29;20094;-79
2022/09/24 04:25:56;;;;;;;58.17;44.30;;;13.00;99.90;;;;;;4955620;28;20043;-79
2022/09/24 04:28:23;;;;;;;56.63;42.22;;;12.90;99.90;;;;;;4955592;28;20051;-81
2022/09/24 04:30:48;;;;;;;60.90;44.40;;;12.90;99.90;;;;;;4956449;28;20066;-79
2022/09/24 04:33:14;;;;;;;53.15;41.63;;;12.90;99.90;;;;;;4955588;28;20387;-78
2022/09/24 04:35:40;;;;;;;56.13;43.03;;;13.00;99.90;;;;;;4958887;28;20090;-77
2022/09/24 04:38:05;;;;;;;57.50;41.80;;;13.00;99.90;;;;;;4959333;28;20058;-77
2022/09/24 04:40:31;;;;;;;48.08;39.85;;;13.20;99.90;;;;;;4959441;29;20599;-78
2022/09/24 04:42:57;;;;;;;49.47;37.90;;;12.90;99.90;;;;;;4959406;28;20082;-77
2022/09/24 04:45:23;;;;;;;51.67;39.50;;;13.00;99.90;;;;;;4959394;29;20145;-77
2022/09/24 04:47:56;;;;;;;45.95;34.20;;;12.80;99.90;;;;;;4959669;28;20178;-80
2022/09/24 04:50:23;;;;;;;48.53;38.17;;;13.00;99.90;;;;;;4958784;28;20411;-79
2022/09/24 04:52:49;;;;;;;48.72;37.45;;;13.00;99.90;;;;;;4959505;28;20508;-79
2022/09/24 04:55:15;;;;;;;49.10;39.00;;;13.10;99.90;;;;;;4959227;28;20043;-77
2022/09/24 04:57:40;;;;;;;45.17;36.50;;;13.00;99.90;;;;;;4957631;28;20381;-78
2022/09/24 05:00:10;;;;;;;46.45;37.08;;;13.00;99.90;;;;;;4959255;28;20050;-77
2022/09/24 05:02:36;;;;;;;50.70;37.60;;;13.00;99.90;;;;;;4959085;28;20447;-77
2022/09/24 05:05:02;;;;;;;47.37;36.77;;;13.00;99.90;;;;;;4959018;28;20142;-80
2022/09/24 05:07:27;;;;;;;46.67;37.15;;;12.90;99.90;;;;;;4957860;29;20051;-80
2022/09/24 05:09:53;;;;;;;45.75;36.75;;;13.00;99.90;;;;;;4958050;28;20051;-77
2022/09/24 05:12:20;;;;;;;48.67;38.75;;;12.90;99.90;;;;;;4958827;28;20047;-78
2022/09/24 05:14:45;;;;;;;46.90;35.78;;;13.00;99.90;;;;;;4958864;28;20058;-80
2022/09/24 05:17:11;;;;;;;45.42;35.95;;;12.90;99.90;;;;;;4958788;29;20479;-78
2022/09/24 05:19:37;;;;;;;48.65;37.40;;;13.00;99.90;;;;;;4958686;28;20475;-79
2022/09/24 05:22:02;;;;;;;49.03;36.47;;;13.00;99.90;;;;;;4958438;28;20051;-81
2022/09/24 05:24:28;;;;;;;47.92;37.53;;;13.00;99.90;;;;;;4958568;29;20057;-76
2022/09/24 05:27:09;;;;;;;44.90;35.85;;;13.00;99.90;;;;;;4958248;29;20089;-77
2022/09/24 05:29:42;;;;;;;44.13;35.17;;;13.00;99.90;;;;;;4958616;28;20138;-78
2022/09/24 05:32:14;;;;;;;45.22;36.17;;;12.90;99.90;;;;;;4958628;28;20051;-78
2022/09/24 05:34:41;;;;;;;41.28;35.13;;;13.00;99.90;;;;;;4958559;28;20142;-77
2022/09/24 05:37:08;;;;;;;44.63;35.15;;;13.00;99.90;;;;;;4958406;29;20106;-78
2022/09/24 05:39:34;;;;;;;43.25;35.22;;;13.10;99.90;;;;;;4958362;28;20063;-78
2022/09/24 05:42:03;;;;;;;45.95;34.22;;;13.00;99.90;;;;;;4958795;28;20054;-77
2022/09/24 05:44:30;;;;;;;47.75;36.00;;;13.00;99.90;;;;;;4958625;28;20051;-76
2022/09/24 05:46:55;;;;;;;;;;;13.00;99.90;;;;;;4958529;28;20131;-80
2022/09/24 05:49:21;;;;;;;41.70;30.02;;;13.00;99.90;;;;;;4958277;28;20020;-77
2022/09/24 05:51:49;;;;;;;43.85;33.90;;;13.00;99.90;;;;;;4958173;28;20039;-80
2022/09/24 05:54:18;;;;;;;46.88;36.13;;;13.00;99.90;;;;;;4958136;28;20047;-78
2022/09/24 05:56:44;;;;;;;42.92;32.60;;;13.00;99.90;;;;;;4958294;28;20395;-79
2022/09/24 05:59:10;;;;;;;42.22;32.40;;;13.00;99.90;;;;;;4958111;28;20105;-81
2022/09/24 06:01:36;;;;;;;43.72;33.85;;;13.00;99.90;;;;;;4956515;29;20036;-77
2022/09/24 06:04:01;;;;;;;46.45;35.47;;;13.00;99.90;;;;;;4957981;28;20051;-79
2022/09/24 06:06:27;;;;;;;44.17;33.43;;;13.40;99.90;;;;;;4957916;29;20047;-79
2022/09/24 06:08:53;;;;;;;45.73;34.83;;;13.10;99.90;;;;;;4957631;28;20047;-80
2022/09/24 06:11:21;;;;;;;46.40;34.65;;;13.00;99.90;;;;;;4957852;28;20043;-76
2022/09/24 06:13:47;;;;;;;43.75;34.38;;;13.00;99.90;;;;;;4957673;28;20475;-79
2022/09/24 06:16:13;;;;;;;44.50;33.80;;;13.00;99.90;;;;;;4957881;28;20043;-76
2022/09/24 06:18:41;;;;;;;43.17;33.10;;;13.20;99.90;;;;;;4957871;28;20483;-79
2022/09/24 06:21:12;;;;;;;48.28;34.53;;;13.10;99.90;;;;;;4957538;28;20039;-76
2022/09/24 06:23:38;;;;;;;45.08;34.53;;;13.10;99.90;;;;;;4956455;29;20043;-81
2022/09/24 06:26:06;;;;;;;42.67;32.85;;;13.30;99.90;;;;;;4957585;28;20083;-78
2022/09/24 06:28:33;;;;;;;47.75;34.38;;;13.10;99.90;;;;;;4957526;28;20109;-77
2022/09/24 06:30:59;;;;;;;46.70;34.40;;;13.10;99.90;;;;;;4957362;28;20043;-79
2022/09/24 06:33:26;;;;;;;43.05;30.23;;;13.10;99.90;;;;;;4940387;29;20051;-75
2022/09/24 06:35:52;;;;;;;44.45;32.92;;;13.20;99.90;;;;;;4957574;28;20043;-81
2022/09/24 06:38:18;;;;;;;43.67;33.10;;;13.20;99.90;;;;;;4958101;29;20066;-80
2022/09/24 06:40:45;;;;;;;47.00;34.33;;;13.20;99.90;;;;;;4957353;28;20433;-78
2022/09/24 06:43:12;;;;;;;45.13;34.10;;;13.20;99.90;;;;;;4957255;28;20047;-75
2022/09/24 06:45:38;;;;;;;51.00;35.35;;;13.20;99.90;;;;;;4957194;28;20083;-76
2022/09/24 06:48:04;;;;;;;50.20;34.42;;;13.20;99.90;;;;;;4957480;28;20098;-81
2022/09/24 06:50:33;;;;;;;49.53;35.15;;;13.20;99.90;;;;;;4957092;28;20479;-79
2022/09/24 06:52:59;;;;;;;46.70;35.20;;;13.20;99.90;;;;;;4957439;28;20043;-77
2022/09/24 06:55:25;;;;;;;51.92;35.38;;;13.30;99.90;;;;;;4957096;28;20127;-77
2022/09/24 06:58:01;;;;;;;49.67;34.47;;;13.30;99.90;;;;;;4955224;28;20050;-77
2022/09/24 07:00:27;;;;;;;45.10;33.13;;;13.30;99.90;;;;;;4957061;28;20054;-78
2022/09/24 07:02:53;;;;;;;47.90;34.80;;;13.30;99.90;;;;;;4956841;28;20043;-78
2022/09/24 07:05:18;;;;;;;44.80;34.10;;;13.30;99.90;;;;;;4956817;29;20113;-78
2022/09/24 07:07:44;;;;;;;44.75;34.10;;;13.30;99.90;;;;;;4956843;28;20106;-78
2022/09/24 07:10:10;;;;;;;45.10;33.35;;;13.30;99.90;;;;;;4957075;29;20043;-80
2022/09/24 07:12:35;;;;;;;53.50;35.65;;;13.40;99.90;;;;;;4956664;28;20039;-79
2022/09/24 07:15:02;;;;;;;47.13;34.05;;;13.40;99.90;;;;;;4956697;28;20062;-77
2022/09/24 07:17:28;;;;;;;47.33;34.22;;;13.40;99.90;;;;;;4956611;28;20057;-78
2022/09/24 07:19:54;;;;;;;50.67;34.57;;;13.40;99.90;;;;;;4956498;28;20114;-79
2022/09/24 07:22:20;;;;;;;45.40;33.27;;;13.50;99.90;;;;;;4956328;28;20310;-79
2022/09/24 07:24:46;;;;;;;46.60;32.72;;;13.50;99.90;;;;;;4956563;28;20047;-78
2022/09/24 07:27:13;;;;;;;44.55;31.33;;;13.50;99.90;;;;;;4956593;28;20086;-80
2022/09/24 07:29:38;;;;;;;44.83;32.80;;;13.50;99.90;;;;;;4956713;28;20163;-80
2022/09/24 07:32:05;;;;;;;42.83;34.03;;;13.60;99.90;;;;;;4956407;28;20086;-78
2022/09/24 07:34:31;;;;;;;43.13;33.28;;;13.60;99.90;;;;;;4956353;28;20051;-77
2022/09/24 07:36:57;;;;;;;43.05;32.80;;;13.60;99.90;;;;;;4955123;29;20046;-78
2022/09/24 07:39:23;;;;;;;43.13;32.30;;;13.60;99.90;;;;;;4956352;28;20073;-77
2022/09/24 07:41:51;;;;;;;41.50;33.42;;;13.60;99.90;;;;;;4956259;29;20303;-77
2022/09/24 07:44:19;;;;;;;45.13;32.70;;;13.70;99.90;;;;;;4956338;28;20043;-81
2022/09/24 07:46:47;;;;;;;44.25;33.53;;;13.60;99.90;;;;;;4955837;28;20526;-78
2022/09/24 07:49:12;;;;;;;42.10;32.30;;;13.60;99.90;;;;;;4956028;28;20043;-81
2022/09/24 07:51:38;;;;;;;44.37;33.87;;;13.60;99.90;;;;;;4956108;28;20043;-79
2022/09/24 07:54:04;;;;;;;45.42;34.30;;;13.60;99.90;;;;;;4956381;29;20047;-79
2022/09/24 07:56:31;;;;;;;44.88;33.47;;;13.70;99.90;;;;;;4956163;28;20459;-79
2022/09/24 07:58:56;;;;;;;44.38;32.60;;;13.60;99.90;;;;;;4956092;28;20047;-79
2022/09/24 08:01:23;;;;;;;46.72;34.55;;;13.60;99.90;;;;;;4955961;28;20062;-76
2022/09/24 08:03:51;;;;;;;46.45;33.63;;;13.70;99.90;;;;;;4955586;28;20055;-80
2022/09/24 08:06:17;;;;;;;48.63;34.20;;;13.70;99.90;;;;;;4955895;28;20126;-81
2022/09/24 08:08:43;;;;;;;37.60;29.85;;;13.70;99.90;;;;;;4955960;28;20043;-78
2022/09/24 08:11:12;;;;;;;41.53;31.08;;;13.60;99.90;;;;;;4955890;29;20055;-80
2022/09/24 08:13:38;;;;;;;53.05;34.97;;;13.60;99.90;;;;;;4955775;28;20058;-81
2022/09/24 08:16:04;;;;;;;46.78;33.70;;;13.60;99.90;;;;;;4955601;28;20047;-82
2022/09/24 08:18:31;;;;;;;43.95;32.45;;;13.70;99.90;;;;;;4955985;28;20102;-78
2022/09/24 08:20:58;;;;;;;;;;;13.60;99.90;;;;;;4956447;28;20138;-79
2022/09/24 08:23:24;;;;;;;47.03;32.60;;;13.70;99.90;;;;;;4955975;28;19922;-78
2022/09/24 08:25:53;;;;;;;40.00;29.33;;;13.70;99.90;;;;;;4955619;29;20047;-79
2022/09/24 08:28:19;;;;;;;38.13;28.95;;;13.70;99.90;;;;;;4955560;28;20051;-80
2022/09/24 08:30:45;;;;;;;40.43;30.53;;;13.60;99.90;;;;;;4955572;28;20131;-81
2022/09/24 08:33:11;;;;;;;39.88;28.58;;;13.70;99.90;;;;;;4955620;28;20055;-79
2022/09/24 08:35:39;;;;;;;36.33;27.77;;;13.70;99.90;;;;;;4955885;29;20134;-81
2022/09/24 08:38:05;;;;;;;42.75;29.35;;;13.70;99.90;;;;;;4956002;28;20126;-80
2022/09/24 08:40:35;;;;;;;38.53;27.47;;;13.70;99.90;;;;;;4955455;28;20527;-81
2022/09/24 08:43:13;;;;;;;43.47;29.27;;;13.80;99.90;;;;;;4955538;28;20047;-81
2022/09/24 08:48:34;;;;;;;37.05;27.88;;;13.80;99.90;;;;;;4955809;29;20503;-80
2022/09/24 08:51:05;;;;;;;42.95;30.00;;;13.80;99.90;;;;;;4955115;28;20515;-82
2022/09/24 08:53:47;;;;;;;35.47;27.48;;;13.90;99.90;;;;;;4955421;28;20051;-80
2022/09/24 08:56:16;;;;;;;37.72;28.35;;;13.90;99.90;;;;;;4955231;28;20471;-79
2022/09/24 08:58:57;;;;;;;35.70;26.55;;;13.90;99.90;;;;;;4955312;28;20063;-81
2022/09/24 09:01:36;;;;;;;37.65;28.13;;;13.90;99.90;;;;;;4954965;29;20495;-80
2022/09/24 09:04:19;;;;;;;39.28;27.75;;;13.90;99.90;;;;;;4955285;28;20051;-82
2022/09/24 09:06:57;;;;;;;36.28;26.73;;;13.90;99.90;;;;;;4955619;29;20460;-81
2022/09/24 09:09:31;;;;;;;35.38;27.02;;;13.90;99.90;;;;;;4955375;28;20196;-78
2022/09/24 09:12:01;;;;;;;35.58;27.38;;;13.90;99.90;;;;;;4955090;28;20047;-78
2022/09/24 09:15:02;;;;;;;35.17;27.30;;;13.90;99.90;;;;;;4955225;28;20055;-82
2022/09/24 09:17:53;;;;;;;37.05;27.52;;;14.00;99.90;;;;;;4946923;28;20066;-82
2022/09/24 09:20:23;;;;;;;32.97;25.75;;;14.10;99.90;;;;;;4956073;28;20180;-81
2022/09/24 09:22:52;;;;;;;30.80;24.27;;;14.10;99.90;;;;;;4958797;29;20057;-82
2022/09/24 09:25:28;;;;;;;32.35;25.20;;;14.20;99.90;;;;;;4958662;28;20110;-81
2022/09/24 09:28:13;;;;;;;28.10;23.67;;;14.20;99.90;;;;;;4958768;28;20395;-82
2022/09/24 09:30:59;;;;;;;30.83;23.25;;;14.30;99.90;;;;;;4958480;28;20039;-79
2022/09/24 09:34:00;;;;;;;30.00;23.80;;;14.40;99.90;;;;;;4958588;28;20051;-81
2022/09/24 09:36:33;;;;;;;33.33;23.33;;;14.50;99.90;;;;;;4956600;29;20444;-83
2022/09/24 09:39:36;;;;;;;31.48;22.00;;;14.60;99.90;;;;;;4958623;29;20403;-82
2022/09/24 09:42:08;;;;;;;31.67;22.13;;;14.70;99.90;;;;;;4958236;28;20464;-83
2022/09/24 09:44:42;;;;;;;29.83;21.48;;;14.90;99.90;;;;;;4958414;28;20051;-83
2022/09/24 09:47:19;;;;;;;28.33;20.10;;;15.00;99.90;;;;;;4958021;29;20513;-80
2022/09/24 09:49:48;;;;;;;26.15;18.90;;;15.00;99.90;;;;;;4958331;29;20480;-81
2022/09/24 09:52:19;;;;;;;22.75;17.42;;;15.00;99.90;;;;;;4958121;29;20050;-80
2022/09/24 09:54:45;;;;;;;23.42;17.55;;;15.00;99.90;;;;;;4958648;28;20050;-78
2022/09/24 09:57:21;;;;;;;20.93;15.83;;;15.00;99.90;;;;;;4958096;29;20039;-79
2022/09/24 09:59:52;;;;;;;13.02;6.18;;;15.00;99.90;;;;;;4958164;28;20499;-79
2022/09/24 10:02:26;;;;;;;13.93;8.15;;;14.90;99.90;;;;;;4958075;28;20058;-80
2022/09/24 10:04:57;;;;;;;17.10;9.63;;;15.00;99.90;;;;;;4957927;29;20134;-79
2022/09/24 10:07:23;;;;;;;9.52;6.13;;;15.00;99.90;;;;;;4958472;28;20090;-82
2022/09/24 10:10:15;;;;;;;9.00;4.00;;;15.00;99.90;;;;;;4957626;28;20081;-83
2022/09/24 10:12:40;;;;;;;12.23;3.83;;;15.00;99.90;;;;;;4957393;28;20051;-78
2022/09/24 10:15:17;;;;;;;12.57;4.00;;;14.90;99.90;;;;;;4957780;28;20387;-80
2022/09/24 10:17:45;;;;;;;12.18;4.90;;;14.80;99.90;;;;;;4957967;28;20134;-81
2022/09/24 10:20:26;;;;;;;13.40;4.47;;;14.80;99.90;;;;;;4958193;28;20043;-81
2022/09/24 10:23:05;;;;;;;9.75;2.83;;;14.80;99.90;;;;;;4957696;28;20047;-81
2022/09/24 10:25:35;;;;;;;10.30;3.28;;;14.80;99.90;;;;;;4957751;28;20058;-80
2022/09/24 10:31:00;;;;;;;11.02;3.28;;;14.90;99.90;;;;;;4957518;28;20130;-78
2022/09/24 10:33:34;;;;;;;9.75;3.28;;;14.90;99.90;;;;;;4956692;28;20047;-79
2022/09/24 10:36:21;;;;;;;13.60;3.10;;;15.00;99.90;;;;;;4957485;28;20051;-78
2022/09/24 10:38:47;;;;;;;10.43;3.35;;;15.20;99.90;;;;;;4957314;28;20403;-80
2022/09/24 10:41:26;;;;;;;11.25;3.30;;;15.30;99.90;;;;;;4957248;29;20058;-80
2022/09/24 10:43:53;;;;;;;10.27;3.58;;;15.50;99.90;;;;;;4957347;28;20447;-78
2022/09/24 10:46:33;;;;;;;8.82;2.83;;;15.50;99.90;;;;;;4957234;28;20400;-81
2022/09/24 10:49:11;;;;;;;11.43;3.20;;;15.60;99.90;;;;;;4957194;29;20094;-78
2022/09/24 10:52:09;;;;;;;12.30;2.67;;;15.60;99.90;;;;;;4957524;28;20055;-81
2022/09/24 10:54:56;;;;;;;6.88;2.10;;;15.50;99.90;;;;;;4957225;28;20054;-81
2022/09/24 10:57:30;;;;;;;8.50;2.47;;;15.40;99.90;;;;;;4957066;29;20480;-82
2022/09/24 11:00:22;;;;;;;10.30;2.05;;;15.40;99.90;;;;;;4956905;29;20043;-80
2022/09/24 11:03:23;;;;;;;7.82;2.28;;;15.40;99.90;;;;;;4957372;29;20043;-80
2022/09/24 11:05:55;;;;;;;6.75;1.73;;;15.40;99.90;;;;;;4956606;28;20391;-81
2022/09/24 11:08:31;;;;;;;11.70;2.45;;;15.50;99.90;;;;;;4955829;29;20051;-80
2022/09/24 11:11:13;;;;;;;8.32;2.20;;;15.50;99.90;;;;;;4956844;28;20054;-83
2022/09/24 11:13:50;;;;;;;12.27;2.47;;;15.60;99.90;;;;;;4956813;28;20395;-82
2022/09/24 11:17:01;;;;;;;7.22;2.35;;;15.50;99.90;;;;;;4956766;29;20060;-80
2022/09/24 11:19:32;;;;;;;8.57;2.20;;;15.50;99.90;;;;;;4956176;29;20154;-81
2022/09/24 11:21:58;;;;;;;8.93;2.95;;;15.50;99.90;;;;;;4956509;29;20110;-80
2022/09/24 11:24:41;;;;;;;11.93;2.53;;;15.40;99.90;;;;;;4956497;29;20051;-80
2022/09/24 11:27:28;;;;;;;11.07;2.30;;;15.30;99.90;;;;;;4956581;28;20043;-79
2022/09/24 11:30:13;;;;;;;9.02;2.20;;;15.30;99.90;;;;;;4956509;29;20394;-82
2022/09/24 11:32:57;;;;;;;8.95;2.47;;;15.20;99.90;;;;;;4956194;29;20054;-78
2022/09/24 11:35:46;;;;;;;7.50;2.38;;;15.10;99.90;;;;;;4956738;28;20391;-82
2022/09/24 11:38:42;;;;;;;7.40;1.90;;;15.10;99.90;;;;;;4956418;28;20066;-81
2022/09/24 11:41:39;;;;;;;6.45;2.10;;;15.10;99.90;;;;;;4955131;28;20090;-80
2022/09/24 11:44:35;;;;;;;7.18;1.80;;;15.00;99.90;;;;;;4955064;28;20585;-82
2022/09/24 11:47:06;;;;;;;7.57;1.92;;;15.00;99.90;;;;;;4956287;28;20047;-83
2022/09/24 11:49:47;;;;;;;9.27;2.00;;;15.10;99.90;;;;;;4956078;29;20047;-81
2022/09/24 11:52:34;;;;;;;9.40;2.00;;;15.10;99.90;;;;;;4956335;29;20051;-79
2022/09/24 11:55:34;;;;;;;8.47;1.93;;;15.10;99.90;;;;;;4956333;28;20043;-81
2022/09/24 11:58:25;;;;;;;6.30;2.13;;;15.20;99.90;;;;;;4955425;29;20062;-80
2022/09/24 12:01:00;;;;;;;7.60;2.38;;;15.20;99.90;;;;;;4954806;29;20047;-80
2022/09/24 12:03:51;;;;;;;8.43;2.30;;;15.20;99.90;;;;;;4955899;29;20134;-80
2022/09/24 12:06:26;;;;;;;10.52;2.35;;;15.30;99.90;;;;;;4955855;28;20054;-81
2022/09/24 12:09:08;;;;;;;5.90;2.10;;;15.30;99.90;;;;;;4954871;28;20511;-80
2022/09/24 12:11:51;;;;;;;9.48;2.50;;;15.20;99.90;;;;;;4955872;28;20047;-78
2022/09/24 12:14:28;;;;;;;10.18;2.00;;;15.30;99.90;;;;;;4955798;28;20134;-81
2022/09/24 12:17:07;;;;;;;8.20;2.30;;;15.30;99.90;;;;;;4956219;28;20455;-78
2022/09/24 12:19:46;;;;;;;9.52;2.33;;;15.30;99.90;;;;;;4956215;28;20138;-80
2022/09/24 12:22:13;;;;;;;8.70;1.95;;;15.30;99.90;;;;;;4954897;28;20478;-79
2022/09/24 12:24:42;;;;;;;;;;;15.30;99.90;;;;;;4956046;28;20431;-83
2022/09/24 12:27:19;;;;;;;8.43;1.70;;;15.30;99.90;;;;;;4955576;29;19923;-83
2022/09/24 12:33:52;;;;;;;6.75;1.70;;;15.30;99.90;;;;;;4955185;28;20047;-80
2022/09/24 12:36:52;;;;;;;8.23;2.05;;;15.30;99.90;;;;;;4955531;28;20458;-81
2022/09/24 12:39:20;;;;;;;5.40;1.40;;;15.40;99.90;;;;;;4955646;28;20059;-77
2022/09/24 12:41:57;;;;;;;7.50;1.90;;;15.50;99.90;;;;;;4955410;28;20059;-79
2022/09/24 12:44:40;;;;;;;6.90;2.08;;;15.50;99.90;;;;;;4955767;28;20059;-80
2022/09/24 12:47:16;;;;;;;5.47;1.20;;;15.60;99.90;;;;;;4955808;28;20052;-80
2022/09/24 12:49:52;;;;;;;9.20;1.75;;;15.50;99.90;;;;;;4955410;28;20495;-80
2022/09/24 12:52:42;;;;;;;4.65;1.60;;;15.50;99.90;;;;;;4955369;28;20182;-79
2022/09/24 12:55:23;;;;;;;7.38;2.00;;;15.50;99.90;;;;;;4956151;28;20093;-80
2022/09/24 12:58:02;;;;;;;10.32;2.20;;;15.50;99.90;;;;;;4959202;28;20114;-81
2022/09/24 13:00:31;;;;;;;7.53;2.00;;;15.50;99.90;;;;;;4959068;28;20122;-77
2022/09/24 13:02:57;;;;;;;7.35;1.77;;;15.60;99.90;;;;;;4959334;29;20047;-78
2022/09/24 13:05:27;;;;;;;6.32;1.65;;;15.60;99.90;;;;;;4959046;28;20182;-81
2022/09/24 13:08:21;;;;;;;4.43;1.40;;;15.60;99.90;;;;;;4958947;28;20055;-79
2022/09/24 13:10:59;;;;;;;5.55;1.60;;;15.60;99.90;;;;;;4957873;29;20049;-79